Time;durP1;ratioP1;P1;durP2;ratioP2;P2;SDS_P1;SDS_P2;PMS_P1;PMS_P2;Temp;Humidity;BMP_temperature;BMP_pressure;BME280_temperature;BME280_humidity;BME280_pressure;Samples;Min_cycle;Max_cycle;Signal;HPM_P1;HPM_P2
2022/11/21 00:01:25;;;;;;;24.10;13.03;;;;;;;1.20;81.92;99825.11;1751330;80;20874;-71
2022/11/21 00:03:54;;;;;;;19.77;12.82;;;;;;;1.17;81.95;99815.33;1758715;80;21815;-71
2022/11/21 00:06:23;;;;;;;22.15;13.05;;;;;;;1.14;81.96;99818.44;1755559;80;20949;-72
2022/11/21 00:08:50;;;;;;;29.37;12.78;;;;;;;1.11;81.96;99827.70;1748076;80;21004;-72
2022/11/21 00:11:17;;;;;;;23.57;13.65;;;;;;;1.11;82.07;99838.56;1748716;80;21072;-72
2022/11/21 00:13:44;;;;;;;25.30;13.83;;;;;;;1.10;82.05;99840.33;1747631;80;20937;-71
2022/11/21 00:16:14;;;;;;;29.48;13.32;;;;;;;1.09;82.09;99840.41;1747538;80;22476;-71
2022/11/21 00:18:45;;;;;;;24.43;13.90;;;;;;;1.09;82.17;99835.20;1718772;80;21008;-72
2022/11/21 00:21:19;;;;;;;27.35;13.03;;;;;;;1.10;82.19;99836.42;1745312;80;21531;-70
2022/11/21 00:23:46;;;;;;;19.35;13.48;;;;;;;1.11;82.22;99835.97;1745354;80;21004;-71
2022/11/21 00:26:15;;;;;;;34.33;14.07;;;;;;;1.13;82.24;99839.33;1745208;80;21037;-70
2022/11/21 00:28:44;;;;;;;21.23;13.72;;;;;;;1.12;82.27;99829.38;1750159;80;21051;-71
2022/11/21 00:31:21;;;;;;;31.73;13.90;;;;;;;1.10;82.18;99829.92;1762833;80;21380;-70
2022/11/21 00:33:50;;;;;;;20.05;13.60;;;;;;;1.07;82.16;99822.74;1757223;80;21476;-70
2022/11/21 00:36:18;;;;;;;29.57;15.20;;;;;;;1.04;82.24;99825.02;1752980;80;21032;-72
2022/11/21 00:38:46;;;;;;;21.82;13.88;;;;;;;1.00;82.21;99834.36;1737302;80;21037;-71
2022/11/21 00:41:12;;;;;;;32.35;14.28;;;;;;;1.00;82.30;99827.85;1744734;81;22528;-71
2022/11/21 00:43:41;;;;;;;25.62;15.63;;;;;;;0.96;82.27;99823.23;1747367;81;20945;-71
2022/11/21 00:46:10;;;;;;;29.07;15.80;;;;;;;0.96;82.35;99832.34;1751677;81;21035;-72
2022/11/21 00:48:39;;;;;;;29.05;15.40;;;;;;;0.98;82.37;99826.63;1738216;81;21296;-71
2022/11/21 00:51:05;;;;;;;26.97;15.93;;;;;;;0.96;82.37;99807.64;1735131;81;21079;-70
2022/11/21 00:53:33;;;;;;;27.22;15.23;;;;;;;0.95;82.37;99791.66;1747561;81;21785;-71
2022/11/21 00:55:59;;;;;;;29.52;16.57;;;;;;;0.93;82.41;99788.30;1744173;81;20948;-71
2022/11/21 00:58:28;;;;;;;42.08;16.42;;;;;;;0.92;82.44;99795.72;1733138;81;21008;-71
2022/11/21 01:01:12;;;;;;;38.30;17.15;;;;;;;0.93;82.47;99788.76;1745931;81;21012;-71
2022/11/21 01:03:41;;;;;;;41.63;17.73;;;;;;;0.93;82.53;99786.16;1748731;81;21427;-70
2022/11/21 01:06:11;;;;;;;37.83;19.20;;;;;;;0.96;82.57;99790.73;1743866;81;22630;-70
2022/11/21 01:08:40;;;;;;;33.53;17.87;;;;;;;0.92;82.51;99789.22;1744517;81;21068;-69
2022/11/21 01:11:10;;;;;;;37.03;19.57;;;;;;;0.90;82.55;99778.52;1742731;81;21012;-69
2022/11/21 01:13:37;;;;;;;24.92;17.82;;;;;;;0.90;82.60;99768.95;1744927;81;21013;-70
2022/11/21 01:16:06;;;;;;;30.12;19.52;;;;;;;0.89;82.63;99765.98;1737484;81;21511;-70
2022/11/21 01:18:34;;;;;;;32.17;20.35;;;;;;;0.89;82.64;99776.84;1723207;81;21863;-70
2022/11/21 01:21:03;;;;;;;38.48;23.05;;;;;;;0.89;82.67;99792.44;1747531;81;21119;-70
2022/11/21 01:23:30;;;;;;;37.67;19.25;;;;;;;0.87;82.67;99797.72;1745228;81;20983;-70
2022/11/21 01:26:04;;;;;;;28.95;18.42;;;;;;;0.90;82.73;99798.86;1735745;81;21072;-71
2022/11/21 01:28:31;;;;;;;29.98;17.30;;;;;;;0.91;82.78;99807.50;1690894;84;21012;-70
2022/11/21 01:31:05;;;;;;;25.90;18.07;;;;;;;0.95;82.85;99807.26;1664590;85;20985;-70
2022/11/21 01:33:32;;;;;;;;;;;;;;;0.98;82.89;99805.83;1695688;84;21002;-70
2022/11/21 01:36:16;;;;;;;25.35;16.62;;;;;;;1.02;82.90;99803.45;1686476;83;20149;-70
2022/11/21 01:38:46;;;;;;;31.50;16.77;;;;;;;1.03;82.93;99792.12;1674937;84;20996;-71
2022/11/21 01:41:16;;;;;;;27.13;17.73;;;;;;;1.05;82.89;99782.48;1674821;84;21395;-71
2022/11/21 01:43:43;;;;;;;25.43;19.45;;;;;;;1.04;82.86;99781.27;1677822;85;21980;-71
2022/11/21 01:46:13;;;;;;;32.70;20.60;;;;;;;1.04;82.87;99778.66;1679064;83;20969;-71
2022/11/21 01:48:51;;;;;;;34.35;23.52;;;;;;;1.05;82.86;99777.28;1703987;81;21055;-71
2022/11/21 01:51:44;;;;;;;33.10;21.93;;;;;;;1.07;82.89;99783.27;1713669;82;20998;-71
2022/11/21 01:54:19;;;;;;;37.03;25.82;;;;;;;1.08;82.86;99794.52;1744577;81;22500;-71
2022/11/21 01:57:07;;;;;;;32.15;24.67;;;;;;;1.08;82.91;99790.16;1736725;81;21935;-71
2022/11/21 02:00:00;;;;;;;33.90;19.37;;;;;;;1.09;82.90;99790.53;1737333;81;21024;-71
2022/11/21 02:02:36;;;;;;;26.30;19.70;;;;;;;1.11;82.93;99803.00;1732436;81;21094;-71
2022/11/21 02:05:04;;;;;;;28.40;20.48;;;;;;;1.13;82.91;99798.55;1737126;81;21019;-71
2022/11/21 02:07:36;;;;;;;27.87;19.77;;;;;;;1.13;82.87;99778.20;1718964;82;20930;-71
2022/11/21 02:10:04;;;;;;;25.88;19.25;;;;;;;1.14;82.84;99774.22;1714592;82;22476;-71
2022/11/21 02:12:44;;;;;;;24.85;19.40;;;;;;;1.15;82.83;99772.00;1749756;81;20989;-71
2022/11/21 02:15:10;;;;;;;24.98;19.55;;;;;;;1.18;82.79;99767.13;1743501;81;21060;-71
2022/11/21 02:17:37;;;;;;;30.97;23.42;;;;;;;1.20;82.77;99768.34;1711745;82;21035;-71
2022/11/21 02:20:18;;;;;;;33.88;24.07;;;;;;;1.14;82.68;99766.88;1721391;81;21546;-71
2022/11/21 02:23:10;;;;;;;27.48;19.85;;;;;;;1.11;82.70;99769.64;1729581;80;21067;-70
2022/11/21 02:25:40;;;;;;;27.70;22.30;;;;;;;1.10;82.74;99777.06;1745773;80;20968;-70
2022/11/21 02:28:13;;;;;;;30.00;20.65;;;;;;;1.10;82.73;99789.61;1753988;81;21503;-70
2022/11/21 02:30:40;;;;;;;24.37;18.95;;;;;;;1.09;82.74;99781.43;1722936;81;20992;-70
2022/11/21 02:33:09;;;;;;;25.00;17.67;;;;;;;1.10;82.76;99773.17;1735710;81;21492;-70
2022/11/21 02:35:36;;;;;;;25.32;17.90;;;;;;;1.10;82.77;99789.61;1739069;81;21847;-70
2022/11/21 02:38:26;;;;;;;22.07;16.93;;;;;;;1.12;82.81;99799.47;1734818;81;21060;-70
2022/11/21 02:41:16;;;;;;;22.20;16.50;;;;;;;1.15;82.82;99791.97;1725560;82;20945;-70
2022/11/21 02:43:58;;;;;;;24.80;18.57;;;;;;;1.20;82.85;99774.84;1736989;81;21995;-70
2022/11/21 02:46:28;;;;;;;24.65;18.27;;;;;;;1.24;82.83;99778.96;1689794;83;21057;-70
2022/11/21 02:48:55;;;;;;;22.17;16.65;;;;;;;1.24;82.75;99778.96;1734008;81;21809;-70
2022/11/21 02:51:22;;;;;;;21.80;15.68;;;;;;;1.23;82.78;99777.28;1750358;81;21012;-70
2022/11/21 02:53:48;;;;;;;19.98;14.95;;;;;;;1.25;82.77;99771.53;1738851;80;21011;-70
2022/11/21 02:56:15;;;;;;;21.62;15.43;;;;;;;1.22;82.71;99777.74;1742588;81;21156;-70
2022/11/21 02:58:42;;;;;;;21.23;14.73;;;;;;;1.22;82.66;99782.95;1739009;81;20960;-70
2022/11/21 03:01:08;;;;;;;20.77;14.95;;;;;;;1.22;82.66;99779.05;1743074;81;21838;-70
2022/11/21 03:03:34;;;;;;;21.87;15.45;;;;;;;1.23;82.66;99777.28;1729071;81;20985;-70
2022/11/21 03:06:01;;;;;;;22.93;16.35;;;;;;;1.25;82.66;99780.64;1743280;81;21004;-70
2022/11/21 03:08:28;;;;;;;22.22;17.35;;;;;;;1.26;82.65;99796.20;1734946;81;21045;-70
2022/11/21 03:10:54;;;;;;;21.40;16.35;;;;;;;1.28;82.62;99794.36;1738908;80;21063;-70
2022/11/21 03:13:21;;;;;;;22.07;15.38;;;;;;;1.29;82.57;99796.50;1738775;81;21839;-70
2022/11/21 03:15:48;;;;;;;20.35;14.60;;;;;;;1.30;82.54;99792.97;1735097;81;21471;-70
2022/11/21 03:18:14;;;;;;;19.92;14.63;;;;;;;1.30;82.49;99789.91;1732272;81;20990;-70
2022/11/21 03:20:41;;;;;;;21.45;15.35;;;;;;;1.30;82.47;99792.52;1739572;81;20965;-70
2022/11/21 03:23:07;;;;;;;20.68;14.80;;;;;;;1.28;82.39;99793.05;1737031;81;21034;-70
2022/11/21 03:25:34;;;;;;;21.25;15.48;;;;;;;1.30;82.40;99795.58;1737682;81;21916;-70
2022/11/21 03:28:01;;;;;;;20.82;15.32;;;;;;;1.30;82.39;99803.37;1745225;81;21048;-69
2022/11/21 03:30:28;;;;;;;22.05;13.98;;;;;;;1.30;82.43;99809.42;1731724;81;21044;-70
2022/11/21 03:32:56;;;;;;;23.07;15.83;;;;;;;1.32;82.42;99813.24;1746650;81;21518;-70
2022/11/21 03:35:24;;;;;;;20.85;14.98;;;;;;;1.32;82.39;99805.44;1737947;81;20866;-70
2022/11/21 03:37:52;;;;;;;21.20;15.48;;;;;;;1.30;82.38;99802.92;1737427;81;21819;-70
2022/11/21 03:40:18;;;;;;;20.80;14.90;;;;;;;1.31;82.37;99813.70;1737408;81;20993;-70
2022/11/21 03:42:46;;;;;;;19.57;14.98;;;;;;;1.33;82.38;99817.06;1737111;80;21003;-70
2022/11/21 03:45:13;;;;;;;19.55;14.50;;;;;;;1.36;82.42;99818.69;1750189;81;21003;-70
2022/11/21 03:47:41;;;;;;;21.75;14.75;;;;;;;1.37;82.42;99812.11;1739260;81;20984;-70
2022/11/21 03:50:09;;;;;;;21.23;16.40;;;;;;;1.37;82.41;99788.69;1755388;81;21971;-70
2022/11/21 03:52:38;;;;;;;22.10;17.32;;;;;;;1.37;82.38;99783.95;1757177;81;20986;-70
2022/11/21 03:55:07;;;;;;;21.73;17.17;;;;;;;1.34;82.32;99774.97;1748316;81;21419;-70
2022/11/21 03:57:35;;;;;;;22.95;17.15;;;;;;;1.32;82.33;99775.52;1745655;81;21011;-71
2022/11/21 04:00:07;;;;;;;24.65;17.05;;;;;;;1.35;82.34;99776.66;1744522;81;21055;-70
2022/11/21 04:02:36;;;;;;;23.30;17.85;;;;;;;1.36;82.34;99769.26;1750043;81;22932;-70
2022/11/21 04:05:07;;;;;;;26.23;21.55;;;;;;;1.35;82.28;99773.63;1745260;81;21015;-70
2022/11/21 04:07:37;;;;;;;30.65;24.15;;;;;;;1.36;82.26;99775.30;1740491;81;20995;-70
2022/11/21 04:10:08;;;;;;;29.87;24.98;;;;;;;1.38;82.27;99773.45;1722776;81;20964;-70
2022/11/21 04:12:37;;;;;;;26.97;22.65;;;;;;;1.40;82.30;99766.87;1727703;81;21066;-70
2022/11/21 04:15:07;;;;;;;27.42;21.62;;;;;;;1.39;82.23;99758.69;1749006;81;22523;-70
2022/11/21 04:17:39;;;;;;;26.40;20.85;;;;;;;1.39;82.23;99748.27;1707112;82;20929;-70
2022/11/21 04:20:09;;;;;;;25.02;19.12;;;;;;;1.41;82.22;99750.33;1720033;81;21113;-70
2022/11/21 04:22:37;;;;;;;23.02;17.50;;;;;;;1.40;82.20;99746.05;1745890;81;21011;-71
2022/11/21 04:25:08;;;;;;;23.50;18.02;;;;;;;1.39;82.21;99756.08;1729074;81;20941;-70
2022/11/21 04:27:37;;;;;;;20.88;14.83;;;;;;;1.39;82.23;99758.69;1742204;81;21911;-70
2022/11/21 04:30:06;;;;;;;22.20;15.38;;;;;;;1.37;82.14;99765.73;1725806;81;21617;-70
2022/11/21 04:32:34;;;;;;;21.60;15.58;;;;;;;1.35;82.14;99758.44;1735324;81;20931;-70
2022/11/21 04:35:01;;;;;;;21.57;15.95;;;;;;;1.35;82.17;99748.91;1738891;81;21630;-70
2022/11/21 04:37:28;;;;;;;22.73;16.48;;;;;;;1.37;82.10;99746.22;1736329;81;21000;-70
2022/11/21 04:39:55;;;;;;;20.65;15.58;;;;;;;1.36;82.09;99748.44;1737128;81;21938;-70
2022/11/21 04:42:21;;;;;;;23.90;17.27;;;;;;;1.36;82.07;99756.25;1714235;81;20983;-70
2022/11/21 04:44:48;;;;;;;21.77;15.53;;;;;;;1.34;82.06;99761.50;1744364;81;21052;-70
2022/11/21 04:47:16;;;;;;;18.57;14.13;;;;;;;1.36;82.08;99766.66;1678390;83;20942;-70
2022/11/21 04:49:44;;;;;;;18.98;14.70;;;;;;;1.34;82.06;99755.46;1677559;84;20965;-70
2022/11/21 04:52:11;;;;;;;19.60;14.93;;;;;;;1.31;82.04;99743.46;1668529;84;22486;-71
2022/11/21 04:54:40;;;;;;;20.80;17.05;;;;;;;1.29;82.04;99724.95;1662417;84;21504;-70
2022/11/21 04:57:06;;;;;;;23.32;17.30;;;;;;;1.26;82.06;99712.95;1663009;83;21077;-70
2022/11/21 04:59:33;;;;;;;22.32;18.10;;;;;;;1.28;82.09;99706.36;1754854;80;21031;-70
2022/11/21 05:02:02;;;;;;;22.70;17.67;;;;;;;1.30;82.14;99707.12;1755146;80;20992;-70
2022/11/21 05:04:29;;;;;;;18.65;14.25;;;;;;;1.31;82.16;99702.30;1714949;82;22711;-70
2022/11/21 05:06:55;;;;;;;17.90;14.13;;;;;;;1.32;82.10;99703.97;1690428;82;21045;-69
2022/11/21 05:09:22;;;;;;;19.27;14.47;;;;;;;1.31;82.03;99718.74;1739314;81;20949;-70
2022/11/21 05:14:34;;;;;;;21.02;15.10;;;;;;;1.29;82.07;99746.61;1701335;82;20969;-70
2022/11/21 05:17:00;;;;;;;21.45;15.72;;;;;;;1.31;82.10;99743.46;1683647;83;22545;-70
2022/11/21 05:19:28;;;;;;;19.95;16.00;;;;;;;1.33;82.02;99736.88;1682269;83;21068;-70
2022/11/21 05:21:57;;;;;;;19.40;15.08;;;;;;;1.29;82.03;99725.80;1727351;81;21015;-70
2022/11/21 05:24:24;;;;;;;18.55;14.70;;;;;;;1.32;82.09;99724.78;1731200;81;21051;-70
2022/11/21 05:26:51;;;;;;;20.52;14.80;;;;;;;1.34;82.09;99717.73;1757997;80;20941;-70
2022/11/21 05:29:18;;;;;;;17.42;13.32;;;;;;;1.35;82.07;99715.51;1739252;80;22474;-70
2022/11/21 05:31:45;;;;;;;19.17;13.98;;;;;;;1.37;82.03;99708.03;1735248;81;20917;-70
2022/11/21 05:34:11;;;;;;;21.57;16.80;;;;;;;1.37;82.01;99700.22;1749529;81;20981;-70
2022/11/21 05:36:39;;;;;;;20.30;15.70;;;;;;;1.39;82.04;99709.24;1736805;81;21110;-70
2022/11/21 05:39:06;;;;;;;25.27;20.55;;;;;;;1.42;82.05;99703.87;1747796;81;21597;-70
2022/11/21 05:41:34;;;;;;;25.10;20.90;;;;;;;1.38;81.97;99701.91;1733677;81;21840;-70
2022/11/21 05:44:01;;;;;;;22.87;19.20;;;;;;;1.39;82.02;99702.73;1743090;81;20945;-70
2022/11/21 05:46:27;;;;;;;20.27;16.32;;;;;;;1.37;81.93;99709.80;1745406;81;20981;-70
2022/11/21 05:48:54;;;;;;;21.52;16.17;;;;;;;1.35;81.94;99714.21;1738874;80;21011;-70
2022/11/21 05:51:21;;;;;;;20.85;15.38;;;;;;;1.35;81.96;99712.91;1737076;81;20944;-71
2022/11/21 05:53:47;;;;;;;20.43;14.10;;;;;;;1.39;81.99;99711.84;1751655;81;21835;-71
2022/11/21 05:56:16;;;;;;;19.23;14.40;;;;;;;1.39;81.93;99710.08;1739667;81;21431;-71
2022/11/21 05:58:43;;;;;;;19.85;14.53;;;;;;;1.39;81.95;99707.94;1739839;81;21034;-70
2022/11/21 06:01:11;;;;;;;18.50;14.00;;;;;;;1.37;81.98;99706.73;1735749;81;20997;-70
2022/11/21 06:03:39;;;;;;;21.37;14.40;;;;;;;1.41;82.00;99706.09;1731377;81;21029;-71
2022/11/21 06:06:12;;;;;;;17.62;13.85;;;;;;;1.42;81.93;99712.52;1731739;81;21939;-71
2022/11/21 06:08:43;;;;;;;18.30;13.80;;;;;;;1.44;81.97;99722.84;1736145;82;21016;-71
2022/11/21 06:11:13;;;;;;;21.50;15.00;;;;;;;1.46;81.96;99722.78;1734817;81;21412;-70
2022/11/21 06:13:40;;;;;;;19.05;14.10;;;;;;;1.43;81.90;99719.39;1737591;81;21125;-71
2022/11/21 06:16:10;;;;;;;20.15;14.63;;;;;;;1.45;81.99;99715.44;1736150;81;21072;-71
2022/11/21 06:18:46;;;;;;;20.23;15.00;;;;;;;1.47;82.02;99720.56;1741048;81;21909;-71
2022/11/21 06:21:19;;;;;;;18.30;13.58;;;;;;;1.50;82.02;99730.34;1670988;85;21023;-72
2022/11/21 06:23:46;;;;;;;17.75;13.48;;;;;;;1.52;82.05;99723.28;1672630;84;21059;-72
2022/11/21 06:26:16;;;;;;;20.85;15.03;;;;;;;1.55;82.02;99720.54;1691978;83;20988;-70
2022/11/21 06:28:43;;;;;;;19.82;14.53;;;;;;;1.54;82.03;99700.61;1736505;81;21423;-71
2022/11/21 06:31:16;;;;;;;18.12;12.95;;;;;;;1.59;82.05;99700.38;1741705;81;21782;-71
2022/11/21 06:33:43;;;;;;;19.37;13.65;;;;;;;1.61;82.03;99706.34;1733517;82;21008;-71
2022/11/21 06:36:15;;;;;;;23.25;15.90;;;;;;;1.60;81.98;99719.81;1718692;82;21060;-72
2022/11/21 06:38:43;;;;;;;20.85;15.32;;;;;;;1.62;81.93;99728.84;1732058;82;20969;-70
2022/11/21 06:41:16;;;;;;;18.65;14.05;;;;;;;1.59;81.90;99718.61;1736240;81;20996;-72
2022/11/21 06:43:43;;;;;;;20.37;14.87;;;;;;;1.61;81.98;99713.69;1728197;81;22607;-71
2022/11/21 06:46:13;;;;;;;19.98;14.65;;;;;;;1.61;81.99;99709.78;1739981;81;21023;-71
2022/11/21 06:48:41;;;;;;;18.87;14.18;;;;;;;1.63;82.01;99711.84;1742126;81;21061;-71
2022/11/21 06:51:20;;;;;;;18.37;14.25;;;;;;;1.66;82.02;99705.66;1742525;81;21406;-71
2022/11/21 06:53:47;;;;;;;15.98;12.18;;;;;;;1.67;82.01;99699.52;1726277;81;21028;-71
2022/11/21 06:56:14;;;;;;;17.92;13.18;;;;;;;1.70;82.01;99712.36;1738002;81;21807;-71
2022/11/21 06:58:41;;;;;;;19.10;13.58;;;;;;;1.72;82.00;99715.72;1738620;81;20981;-71
2022/11/21 07:01:20;;;;;;;18.27;13.03;;;;;;;1.73;81.98;99709.12;1735084;81;21132;-71
2022/11/21 07:03:47;;;;;;;18.90;13.05;;;;;;;1.74;81.96;99702.18;1719018;81;21001;-73
2022/11/21 07:06:15;;;;;;;16.97;12.75;;;;;;;1.76;81.94;99716.41;1740168;81;20955;-76
2022/11/21 07:08:42;;;;;;;20.20;13.60;;;;;;;1.77;81.93;99704.61;1734661;81;21783;-75
2022/11/21 07:11:10;;;;;;;19.98;13.93;;;;;;;1.79;81.94;99704.06;1737180;81;21056;-75
2022/11/21 07:13:38;;;;;;;23.20;12.68;;;;;;;1.80;81.92;99689.27;1736676;81;21076;-77
2022/11/21 07:16:29;;;;;;;16.77;12.40;;;;;;;1.80;81.92;99691.88;1739298;81;21009;-74
2022/11/21 07:19:01;;;;;;;25.40;12.58;;;;;;;1.78;81.90;99690.66;1724359;81;21088;-73
2022/11/21 07:21:28;;;;;;;16.97;12.58;;;;;;;1.76;81.83;99685.17;1726008;81;21907;-75
2022/11/21 07:23:54;;;;;;;20.35;12.20;;;;;;;1.78;81.90;99682.02;1712526;82;21091;-74
2022/11/21 07:26:21;;;;;;;23.40;12.25;;;;;;;1.80;81.89;99679.70;1732928;82;20999;-75
2022/11/21 07:28:47;;;;;;;20.00;14.63;;;;;;;1.81;81.90;99681.84;1729823;81;21457;-75
2022/11/21 07:31:14;;;;;;;21.68;14.58;;;;;;;1.79;81.84;99684.53;1733684;81;21453;-75
2022/11/21 07:33:42;;;;;;;19.80;14.10;;;;;;;1.80;81.86;99688.81;1730525;82;21837;-74
2022/11/21 07:36:10;;;;;;;17.98;13.38;;;;;;;1.82;81.83;99690.02;1709696;82;21014;-75
2022/11/21 07:38:37;;;;;;;23.80;13.45;;;;;;;1.84;81.84;99699.45;1723115;81;21436;-73
2022/11/21 07:41:04;;;;;;;20.23;12.45;;;;;;;1.87;81.86;99690.16;1706742;82;20973;-75
2022/11/21 07:43:32;;;;;;;18.32;11.80;;;;;;;1.91;81.90;99689.52;1729647;82;20946;-74
2022/11/21 07:45:59;;;;;;;19.02;12.07;;;;;;;1.92;81.87;99691.20;1713379;81;21899;-74
2022/11/21 07:48:25;;;;;;;23.00;13.28;;;;;;;1.89;81.86;99693.52;1720006;82;20993;-75
2022/11/21 07:50:52;;;;;;;24.25;13.68;;;;;;;1.90;81.88;99688.69;1695489;81;20872;-75
2022/11/21 07:53:18;;;;;;;20.35;13.00;;;;;;;1.92;81.91;99675.58;1736818;81;21505;-76
2022/11/21 07:55:45;;;;;;;21.80;12.47;;;;;;;1.95;81.93;99680.17;1730944;81;22283;-75
2022/11/21 07:58:14;;;;;;;21.02;12.70;;;;;;;1.98;81.94;99685.67;1712806;82;22037;-73
2022/11/21 08:00:41;;;;;;;16.87;10.50;;;;;;;1.99;81.91;99676.46;1708046;82;21103;-75
2022/11/21 08:03:08;;;;;;;16.17;11.73;;;;;;;2.01;81.93;99669.86;1731481;81;21057;-75
2022/11/21 08:05:36;;;;;;;16.57;11.25;;;;;;;2.00;81.86;99669.48;1730024;82;21200;-74
2022/11/21 08:08:05;;;;;;;21.50;10.75;;;;;;;1.99;81.77;99685.58;1734648;81;20941;-74
2022/11/21 08:10:32;;;;;;;17.52;11.75;;;;;;;1.97;81.75;99691.80;1734023;81;21851;-74
2022/11/21 08:13:00;;;;;;;14.50;10.72;;;;;;;1.94;81.71;99683.70;1721417;82;21458;-74
2022/11/21 08:15:26;;;;;;;16.77;11.57;;;;;;;1.93;81.77;99682.46;1725495;82;21082;-76
2022/11/21 08:17:52;;;;;;;21.35;12.03;;;;;;;1.90;81.76;99678.27;1734305;82;21410;-74
2022/11/21 08:20:20;;;;;;;17.02;11.40;;;;;;;1.91;81.83;99684.31;1730739;81;21069;-77
2022/11/21 08:22:47;;;;;;;24.45;11.18;;;;;;;1.94;81.85;99683.70;1713069;82;22373;-75
2022/11/21 08:25:14;;;;;;;16.50;10.85;;;;;;;1.96;81.82;99669.30;1668446;83;21435;-74
2022/11/21 08:27:42;;;;;;;15.58;10.78;;;;;;;1.95;81.79;99645.48;1654566;83;21436;-75
2022/11/21 08:30:11;;;;;;;19.85;10.93;;;;;;;1.91;81.79;99629.17;1674769;84;21044;-75
2022/11/21 08:32:38;;;;;;;21.05;14.43;;;;;;;1.88;81.80;99624.61;1668944;85;21542;-73
2022/11/21 08:35:06;;;;;;;20.17;10.85;;;;;;;1.88;81.90;99625.91;1716969;82;21833;-77
2022/11/21 08:37:34;;;;;;;17.98;12.33;;;;;;;1.91;81.97;99617.45;1716007;82;20962;-78
2022/11/21 08:40:01;;;;;;;19.42;11.48;;;;;;;1.93;82.06;99606.94;1719984;82;21054;-75
2022/11/21 08:42:28;;;;;;;20.00;12.73;;;;;;;1.99;82.11;99617.02;1705197;84;21077;-83
2022/11/21 08:44:54;;;;;;;16.70;12.18;;;;;;;2.04;82.19;99616.32;1734990;82;21016;-76
2022/11/21 08:47:21;;;;;;;15.28;11.05;;;;;;;2.08;82.17;99629.53;1739675;82;21839;-76
2022/11/21 08:49:47;;;;;;;18.20;11.12;;;;;;;2.12;82.16;99632.80;1746578;82;21091;-77
2022/11/21 08:52:16;;;;;;;15.58;11.38;;;;;;;2.13;82.15;99639.25;1742472;80;21032;-73
2022/11/21 08:54:44;;;;;;;17.17;10.80;;;;;;;2.18;82.21;99646.33;1746300;82;21431;-74
2022/11/21 08:57:11;;;;;;;16.17;10.60;;;;;;;2.19;82.11;99646.70;1747226;81;22050;-75
2022/11/21 08:59:38;;;;;;;14.20;9.80;;;;;;;2.23;82.16;99664.31;1746822;81;21742;-77
2022/11/21 09:02:06;;;;;;;15.68;10.45;;;;;;;2.26;82.14;99674.09;1746606;82;20988;-77
2022/11/21 09:04:32;;;;;;;20.65;10.55;;;;;;;2.25;82.08;99665.06;1746676;81;20954;-74
2022/11/21 09:07:00;;;;;;;18.25;10.48;;;;;;;2.21;82.06;99663.08;1746731;82;21148;-74
2022/11/21 09:09:27;;;;;;;14.58;9.85;;;;;;;2.21;82.12;99652.66;1702233;82;21032;-75
2022/11/21 09:11:54;;;;;;;20.68;11.20;;;;;;;2.25;82.15;99652.88;1707543;83;22335;-77
2022/11/21 09:19:57;;;;;;;16.10;11.55;;;;;;;2.25;82.03;99668.50;1744695;82;21243;-77
2022/11/21 09:22:28;;;;;;;16.95;12.10;;;;;;;2.18;81.88;99669.77;1744723;81;20873;-80
2022/11/21 09:24:52;;;;;;;16.52;11.63;;;;;;;2.14;81.98;99669.58;1744355;82;21878;-78
2022/11/21 09:27:20;;;;;;;19.02;12.07;;;;;;;2.15;81.96;99676.46;1761236;80;20981;-78
2022/11/21 09:29:47;;;;;;;24.40;17.92;;;;;;;2.15;82.03;99682.98;1781412;80;21409;-76
2022/11/21 09:32:15;;;;;;;18.92;14.55;;;;;;;2.15;82.02;99684.28;1762178;80;21075;-78
2022/11/21 09:34:42;;;;;;;19.02;14.35;;;;;;;2.13;82.03;99675.72;1743004;81;20957;-80
2022/11/21 09:37:08;;;;;;;16.62;12.47;;;;;;;2.15;82.09;99692.56;1721516;81;21866;-77
2022/11/21 09:39:34;;;;;;;18.85;12.35;;;;;;;2.17;82.01;99698.52;1768304;81;21371;-78
2022/11/21 09:42:24;;;;;;;15.70;11.12;;;;;;;2.17;81.94;99684.19;1726491;82;21412;-74
2022/11/21 09:45:11;;;;;;;16.65;10.60;;;;;;;2.19;81.97;99678.42;1764054;80;21032;-78
2022/11/21 09:47:46;;;;;;;16.20;9.80;;;;;;;2.21;82.03;99659.16;1750996;80;21451;-79
2022/11/21 09:50:27;;;;;;;14.45;9.73;;;;;;;2.21;82.04;99649.21;1698744;83;21974;-75
2022/11/21 09:53:20;;;;;;;17.07;10.95;;;;;;;2.19;82.07;99631.06;1705917;83;21452;-77
2022/11/21 09:55:57;;;;;;;20.23;16.75;;;;;;;2.18;82.08;99622.03;1660495;85;21057;-78
2022/11/21 09:58:47;;;;;;;19.67;17.17;;;;;;;2.13;82.00;99604.08;1673608;84;20988;-77
2022/11/21 10:01:15;;;;;;;21.37;18.87;;;;;;;2.12;82.01;99599.77;1693011;82;20981;-80
2022/11/21 10:03:44;;;;;;;19.17;14.83;;;;;;;2.12;82.05;99588.51;1701287;83;21756;-77
2022/11/21 10:06:28;;;;;;;21.07;14.68;;;;;;;2.09;81.98;99580.41;1701394;84;21101;-77
2022/11/21 10:09:09;;;;;;;20.52;16.87;;;;;;;2.05;81.96;99573.72;1707564;83;29025;-76
2022/11/21 10:15:38;;;;;;;11.90;9.35;;;;;;;2.02;82.07;99554.34;1611139;86;21032;-77
2022/11/21 10:19:03;;;;;;;12.20;9.35;;;;;;;1.97;82.02;99535.55;1697264;82;21751;-76
2022/11/21 10:21:53;;;;;;;15.17;9.20;;;;;;;1.98;82.09;99532.84;1704316;83;21022;-76
2022/11/21 10:24:45;;;;;;;16.77;14.00;;;;;;;1.93;82.07;99514.06;1684535;84;21508;-76
2022/11/21 10:27:22;;;;;;;15.65;12.30;;;;;;;1.91;82.11;99514.59;1696603;83;21440;-77
2022/11/21 10:29:54;;;;;;;13.95;11.83;;;;;;;1.92;82.23;99498.03;1687734;84;21037;-76
2022/11/21 10:32:28;;;;;;;14.45;11.65;;;;;;;1.95;82.28;99482.72;1683349;84;21816;-77
2022/11/21 10:34:59;;;;;;;15.03;12.15;;;;;;;1.93;82.27;99467.19;1680913;84;21563;-77
2022/11/21 10:37:33;;;;;;;12.90;9.73;;;;;;;1.95;82.27;99455.38;1636826;85;20981;-76
2022/11/21 10:40:33;;;;;;;11.20;9.48;;;;;;;1.93;82.22;99437.67;1698892;83;21012;-77
2022/11/21 10:46:08;;;;;;;16.30;14.60;;;;;;;1.81;82.18;99403.25;1682932;84;21867;-77
2022/11/21 10:48:34;;;;;;;11.85;9.88;;;;;;;1.78;82.31;99396.47;1737474;81;20950;-77
2022/11/21 10:51:13;;;;;;;13.30;11.35;;;;;;;1.80;82.41;99393.30;1735792;81;20961;-77
2022/11/21 10:56:26;;;;;;;12.25;9.58;;;;;;;1.84;82.44;99383.10;1745059;81;21075;-75
2022/11/21 10:58:56;;;;;;;11.15;8.68;;;;;;;1.82;82.46;99361.50;1673349;84;22576;-77
2022/11/21 11:01:30;;;;;;;9.33;8.05;;;;;;;1.81;82.46;99368.94;1669500;84;21151;-76
2022/11/21 11:04:16;;;;;;;11.25;10.05;;;;;;;1.76;82.40;99371.46;1715106;81;21483;-77
2022/11/21 11:06:45;;;;;;;11.38;9.95;;;;;;;1.77;82.52;99365.33;1736413;81;21247;-77
2022/11/21 11:09:32;;;;;;;12.33;10.32;;;;;;;1.73;82.50;99361.58;1738579;80;21339;-77
2022/11/21 11:15:21;;;;;;;17.87;11.63;;;;;;;1.73;82.64;99334.25;1735294;80;20949;-77
2022/11/21 11:18:01;;;;;;;21.40;11.90;;;;;;;1.72;82.68;99328.67;1732535;81;21000;-77
2022/11/21 11:20:42;;;;;;;8.80;7.58;;;;;;;1.73;82.71;99337.31;1751807;80;21043;-77
2022/11/21 11:23:24;;;;;;;113.05;15.98;;;;;;;1.76;82.74;99338.92;1747636;80;21060;-77
2022/11/21 11:50:18;;;;;;;8.08;5.78;;;;;;;1.84;82.96;99301.55;1745463;81;21034;-77
2022/11/21 11:52:07;;;;;;;14.93;5.33;;;;;;;1.87;82.99;99281.36;1742775;80;21541;-76
2022/11/21 11:54:45;;;;;;;10.70;5.85;;;;;;;1.88;83.03;99296.05;1752314;80;21039;-77
2022/11/21 11:57:12;;;;;;;8.68;6.20;;;;;;;1.90;83.04;99298.09;1741085;80;22041;-76
2022/11/21 11:59:42;;;;;;;7.83;5.70;;;;;;;1.93;83.06;99294.02;1690267;80;21118;-76
2022/11/21 12:02:23;;;;;;;8.28;5.47;;;;;;;1.94;83.05;99300.90;1749121;80;21086;-78
2022/11/21 12:04:57;;;;;;;8.45;6.00;;;;;;;1.93;83.00;99310.08;1713997;82;21546;-80
2022/11/21 12:07:32;;;;;;;12.58;6.37;;;;;;;1.91;82.99;99315.85;1744657;80;20987;-74
2022/11/21 12:10:23;;;;;;;11.48;6.08;;;;;;;1.88;82.96;99310.84;1750154;80;21933;-73
2022/11/21 12:13:04;;;;;;;18.98;6.67;;;;;;;1.86;83.00;99304.89;1739751;80;21330;-75
2022/11/21 12:15:48;;;;;;;20.68;7.37;;;;;;;1.88;83.04;99303.86;1750944;80;21201;-75
2022/11/21 12:18:26;;;;;;;10.78;6.33;;;;;;;1.91;83.10;99314.55;1742540;80;21028;-75
2022/11/21 12:21:15;;;;;;;8.45;6.12;;;;;;;1.95;83.13;99306.47;1746212;80;21067;-76
2022/11/21 12:23:52;;;;;;;8.20;5.55;;;;;;;1.99;83.14;99279.77;1757426;80;22014;-74
2022/11/21 12:26:52;;;;;;;9.20;6.25;;;;;;;1.99;83.13;99265.45;1754507;80;21491;-73
2022/11/21 12:29:36;;;;;;;9.70;5.90;;;;;;;2.00;83.15;99261.91;1741697;81;22021;-75